Climax Springs, Missouri
Current Conditions -  °F | °C
As of 10:15 PM on Wednesday 26 Nov 2014 (Local Time) from KH21 Reporting Station
Overcast Overcast  
Wind Chill: 23°   Ceiling: 1400
Heat Index: 32°   Visibility: 10mi
Dew Point: 28°   Wind: 12mph
Humidity: 87%   Direction: 280°W
Pressure: 30.27"   Gusts: 26mph
Location:  38.1°N, 93.05°W
Report Text: KH21 270415Z AUTO 28010G23KT 10SM OVC014 00/M02 A3027 RMK AO2
Loading
Personal Weather Stations






























Interactive Weather Map New forecast layout! Learn more

10-Day Weather Forecast

Advertisements
Track Severe Weather on mobile